sensor_id;sensor_type;location;lat;lon;timestamp;P1;durP1;ratioP1;P2;durP2;ratioP2
7557;SDS011;3820;51.098;13.716;2022-12-10T00:02:05;16.00;;;7.97;;
7557;SDS011;3820;51.098;13.716;2022-12-10T00:04:32;18.80;;;8.53;;
7557;SDS011;3820;51.098;13.716;2022-12-10T00:06:58;21.43;;;8.83;;
7557;SDS011;3820;51.098;13.716;2022-12-10T00:09:25;19.87;;;9.40;;
7557;SDS011;3820;51.098;13.716;2022-12-10T00:11:51;17.47;;;7.53;;
7557;SDS011;3820;51.098;13.716;2022-12-10T00:14:18;16.87;;;8.10;;
7557;SDS011;3820;51.098;13.716;2022-12-10T00:16:44;27.00;;;7.33;;
7557;SDS011;3820;51.098;13.716;2022-12-10T00:19:11;20.10;;;9.40;;
7557;SDS011;3820;51.098;13.716;2022-12-10T00:21:38;19.33;;;8.33;;
7557;SDS011;3820;51.098;13.716;2022-12-10T00:24:06;18.80;;;7.27;;
7557;SDS011;3820;51.098;13.716;2022-12-10T00:26:34;18.50;;;6.93;;
7557;SDS011;3820;51.098;13.716;2022-12-10T00:29:03;14.87;;;8.10;;
7557;SDS011;3820;51.098;13.716;2022-12-10T00:31:33;17.90;;;7.50;;
7557;SDS011;3820;51.098;13.716;2022-12-10T00:34:03;16.37;;;7.37;;
7557;SDS011;3820;51.098;13.716;2022-12-10T00:36:34;16.97;;;7.80;;
7557;SDS011;3820;51.098;13.716;2022-12-10T00:39:12;16.23;;;6.80;;
7557;SDS011;3820;51.098;13.716;2022-12-10T00:41:41;19.50;;;7.27;;
7557;SDS011;3820;51.098;13.716;2022-12-10T00:44:08;22.33;;;9.70;;
7557;SDS011;3820;51.098;13.716;2022-12-10T00:46:35;11.50;;;6.83;;
7557;SDS011;3820;51.098;13.716;2022-12-10T00:49:02;19.93;;;6.40;;
7557;SDS011;3820;51.098;13.716;2022-12-10T00:51:29;19.90;;;8.00;;
7557;SDS011;3820;51.098;13.716;2022-12-10T00:53:56;18.17;;;7.90;;
7557;SDS011;3820;51.098;13.716;2022-12-10T00:56:25;19.00;;;8.30;;
7557;SDS011;3820;51.098;13.716;2022-12-10T00:58:53;15.87;;;7.70;;
7557;SDS011;3820;51.098;13.716;2022-12-10T01:01:22;15.30;;;7.83;;
7557;SDS011;3820;51.098;13.716;2022-12-10T01:03:51;24.00;;;8.97;;
7557;SDS011;3820;51.098;13.716;2022-12-10T01:06:21;16.30;;;6.80;;
7557;SDS011;3820;51.098;13.716;2022-12-10T01:08:59;14.03;;;7.50;;
7557;SDS011;3820;51.098;13.716;2022-12-10T01:11:31;16.87;;;7.80;;
7557;SDS011;3820;51.098;13.716;2022-12-10T01:14:03;25.73;;;8.40;;
7557;SDS011;3820;51.098;13.716;2022-12-10T01:16:31;19.63;;;7.87;;
7557;SDS011;3820;51.098;13.716;2022-12-10T01:18:57;22.47;;;9.37;;
7557;SDS011;3820;51.098;13.716;2022-12-10T01:21:25;16.90;;;7.97;;
7557;SDS011;3820;51.098;13.716;2022-12-10T01:23:53;14.43;;;6.90;;
7557;SDS011;3820;51.098;13.716;2022-12-10T01:26:21;16.23;;;8.43;;
7557;SDS011;3820;51.098;13.716;2022-12-10T01:28:50;15.07;;;7.30;;
7557;SDS011;3820;51.098;13.716;2022-12-10T01:31:21;18.60;;;6.97;;
7557;SDS011;3820;51.098;13.716;2022-12-10T01:33:55;14.53;;;7.97;;
7557;SDS011;3820;51.098;13.716;2022-12-10T01:36:25;14.03;;;6.70;;
7557;SDS011;3820;51.098;13.716;2022-12-10T01:38:56;18.63;;;7.20;;
7557;SDS011;3820;51.098;13.716;2022-12-10T01:41:24;16.80;;;7.63;;
7557;SDS011;3820;51.098;13.716;2022-12-10T01:44:00;21.30;;;8.37;;
7557;SDS011;3820;51.098;13.716;2022-12-10T01:46:30;18.30;;;7.13;;
7557;SDS011;3820;51.098;13.716;2022-12-10T01:48:58;22.70;;;7.83;;
7557;SDS011;3820;51.098;13.716;2022-12-10T01:51:28;22.97;;;6.93;;
7557;SDS011;3820;51.098;13.716;2022-12-10T01:53:56;19.63;;;7.83;;
7557;SDS011;3820;51.098;13.716;2022-12-10T01:56:23;23.47;;;6.93;;
7557;SDS011;3820;51.098;13.716;2022-12-10T01:58:50;15.83;;;6.77;;
7557;SDS011;3820;51.098;13.716;2022-12-10T02:07:16;12.67;;;7.03;;
7557;SDS011;3820;51.098;13.716;2022-12-10T02:10:08;14.40;;;5.77;;
7557;SDS011;3820;51.098;13.716;2022-12-10T02:12:53;16.40;;;6.10;;
7557;SDS011;3820;51.098;13.716;2022-12-10T02:15:25;16.80;;;7.17;;
7557;SDS011;3820;51.098;13.716;2022-12-10T02:17:55;14.27;;;6.77;;
7557;SDS011;3820;51.098;13.716;2022-12-10T02:20:31;12.50;;;6.00;;
7557;SDS011;3820;51.098;13.716;2022-12-10T02:23:04;11.47;;;6.63;;
7557;SDS011;3820;51.098;13.716;2022-12-10T02:28:36;16.37;;;7.73;;
7557;SDS011;3820;51.098;13.716;2022-12-10T02:31:20;16.83;;;6.63;;
7557;SDS011;3820;51.098;13.716;2022-12-10T02:33:50;14.00;;;5.87;;
7557;SDS011;3820;51.098;13.716;2022-12-10T02:36:18;17.90;;;7.73;;
7557;SDS011;3820;51.098;13.716;2022-12-10T02:38:46;19.10;;;6.93;;
7557;SDS011;3820;51.098;13.716;2022-12-10T02:41:16;17.27;;;7.23;;
7557;SDS011;3820;51.098;13.716;2022-12-10T02:43:46;19.53;;;7.10;;
7557;SDS011;3820;51.098;13.716;2022-12-10T02:46:15;12.13;;;6.13;;
7557;SDS011;3820;51.098;13.716;2022-12-10T02:48:42;20.93;;;7.83;;
7557;SDS011;3820;51.098;13.716;2022-12-10T02:51:10;9.63;;;4.97;;
7557;SDS011;3820;51.098;13.716;2022-12-10T02:53:43;12.23;;;4.63;;
7557;SDS011;3820;51.098;13.716;2022-12-10T02:56:20;12.30;;;5.57;;
7557;SDS011;3820;51.098;13.716;2022-12-10T03:07:01;17.73;;;7.43;;
7557;SDS011;3820;51.098;13.716;2022-12-10T03:09:41;15.47;;;8.33;;
7557;SDS011;3820;51.098;13.716;2022-12-10T03:12:15;14.20;;;6.17;;
7557;SDS011;3820;51.098;13.716;2022-12-10T03:14:45;19.43;;;7.63;;
7557;SDS011;3820;51.098;13.716;2022-12-10T03:17:12;11.87;;;6.63;;
7557;SDS011;3820;51.098;13.716;2022-12-10T03:19:40;20.93;;;7.00;;
7557;SDS011;3820;51.098;13.716;2022-12-10T03:22:09;12.77;;;6.73;;
7557;SDS011;3820;51.098;13.716;2022-12-10T03:24:38;12.90;;;5.87;;
7557;SDS011;3820;51.098;13.716;2022-12-10T03:27:06;17.90;;;7.23;;
7557;SDS011;3820;51.098;13.716;2022-12-10T03:29:39;27.90;;;8.03;;
7557;SDS011;3820;51.098;13.716;2022-12-10T03:32:08;13.00;;;5.63;;
7557;SDS011;3820;51.098;13.716;2022-12-10T03:34:35;14.03;;;6.77;;
7557;SDS011;3820;51.098;13.716;2022-12-10T03:37:02;12.83;;;6.40;;
7557;SDS011;3820;51.098;13.716;2022-12-10T03:39:29;22.17;;;6.80;;
7557;SDS011;3820;51.098;13.716;2022-12-10T03:41:56;15.87;;;5.37;;
7557;SDS011;3820;51.098;13.716;2022-12-10T03:44:26;18.00;;;7.47;;
7557;SDS011;3820;51.098;13.716;2022-12-10T03:46:57;20.27;;;6.70;;
7557;SDS011;3820;51.098;13.716;2022-12-10T03:49:24;14.20;;;6.97;;
7557;SDS011;3820;51.098;13.716;2022-12-10T03:51:50;15.70;;;6.70;;
7557;SDS011;3820;51.098;13.716;2022-12-10T03:54:17;13.33;;;6.13;;
7557;SDS011;3820;51.098;13.716;2022-12-10T03:56:44;15.80;;;6.77;;
7557;SDS011;3820;51.098;13.716;2022-12-10T03:59:10;11.77;;;5.67;;
7557;SDS011;3820;51.098;13.716;2022-12-10T04:01:37;20.10;;;7.57;;
7557;SDS011;3820;51.098;13.716;2022-12-10T04:04:04;22.67;;;7.03;;
7557;SDS011;3820;51.098;13.716;2022-12-10T04:06:31;14.67;;;5.83;;
7557;SDS011;3820;51.098;13.716;2022-12-10T04:08:58;16.27;;;7.63;;
7557;SDS011;3820;51.098;13.716;2022-12-10T04:11:25;18.43;;;7.33;;
7557;SDS011;3820;51.098;13.716;2022-12-10T04:13:51;14.03;;;6.07;;
7557;SDS011;3820;51.098;13.716;2022-12-10T04:16:37;12.57;;;6.43;;
7557;SDS011;3820;51.098;13.716;2022-12-10T04:19:09;15.60;;;6.17;;
7557;SDS011;3820;51.098;13.716;2022-12-10T04:21:37;23.03;;;7.37;;
7557;SDS011;3820;51.098;13.716;2022-12-10T04:24:24;25.37;;;8.30;;
7557;SDS011;3820;51.098;13.716;2022-12-10T04:27:21;13.70;;;6.53;;
7557;SDS011;3820;51.098;13.716;2022-12-10T04:29:49;21.70;;;7.17;;
7557;SDS011;3820;51.098;13.716;2022-12-10T04:32:16;25.90;;;8.33;;
7557;SDS011;3820;51.098;13.716;2022-12-10T04:34:43;11.80;;;5.60;;
7557;SDS011;3820;51.098;13.716;2022-12-10T04:37:13;13.90;;;5.87;;
7557;SDS011;3820;51.098;13.716;2022-12-10T04:39:40;14.43;;;6.60;;
7557;SDS011;3820;51.098;13.716;2022-12-10T04:42:07;14.97;;;4.97;;
7557;SDS011;3820;51.098;13.716;2022-12-10T04:44:34;20.23;;;7.50;;
7557;SDS011;3820;51.098;13.716;2022-12-10T04:47:01;20.60;;;6.77;;
7557;SDS011;3820;51.098;13.716;2022-12-10T04:49:29;16.80;;;7.00;;
7557;SDS011;3820;51.098;13.716;2022-12-10T04:51:56;20.40;;;6.83;;
7557;SDS011;3820;51.098;13.716;2022-12-10T04:54:22;13.83;;;7.67;;
7557;SDS011;3820;51.098;13.716;2022-12-10T04:56:49;15.23;;;7.27;;
7557;SDS011;3820;51.098;13.716;2022-12-10T04:59:15;10.83;;;5.27;;
7557;SDS011;3820;51.098;13.716;2022-12-10T05:01:42;15.37;;;6.63;;
7557;SDS011;3820;51.098;13.716;2022-12-10T05:04:10;13.07;;;5.97;;
7557;SDS011;3820;51.098;13.716;2022-12-10T05:06:39;21.07;;;6.07;;
7557;SDS011;3820;51.098;13.716;2022-12-10T05:09:06;15.10;;;6.73;;
7557;SDS011;3820;51.098;13.716;2022-12-10T05:11:32;20.17;;;8.13;;
7557;SDS011;3820;51.098;13.716;2022-12-10T05:13:59;21.13;;;6.87;;
7557;SDS011;3820;51.098;13.716;2022-12-10T05:16:27;13.03;;;7.03;;
7557;SDS011;3820;51.098;13.716;2022-12-10T05:18:55;11.57;;;6.23;;
7557;SDS011;3820;51.098;13.716;2022-12-10T05:21:23;17.07;;;6.20;;
7557;SDS011;3820;51.098;13.716;2022-12-10T05:24:12;17.67;;;6.90;;
7557;SDS011;3820;51.098;13.716;2022-12-10T05:26:39;23.30;;;6.83;;
7557;SDS011;3820;51.098;13.716;2022-12-10T05:29:06;16.50;;;7.83;;
7557;SDS011;3820;51.098;13.716;2022-12-10T05:31:33;19.03;;;7.77;;
7557;SDS011;3820;51.098;13.716;2022-12-10T05:34:00;13.60;;;6.33;;
7557;SDS011;3820;51.098;13.716;2022-12-10T05:36:27;14.93;;;6.30;;
7557;SDS011;3820;51.098;13.716;2022-12-10T05:38:56;10.97;;;5.13;;
7557;SDS011;3820;51.098;13.716;2022-12-10T05:41:24;15.03;;;7.00;;
7557;SDS011;3820;51.098;13.716;2022-12-10T05:43:56;10.53;;;5.97;;
7557;SDS011;3820;51.098;13.716;2022-12-10T05:46:24;14.10;;;6.20;;
7557;SDS011;3820;51.098;13.716;2022-12-10T05:48:52;12.50;;;5.73;;
7557;SDS011;3820;51.098;13.716;2022-12-10T05:51:23;13.57;;;6.00;;
7557;SDS011;3820;51.098;13.716;2022-12-10T05:53:52;17.87;;;6.63;;
7557;SDS011;3820;51.098;13.716;2022-12-10T05:56:20;14.93;;;6.73;;
7557;SDS011;3820;51.098;13.716;2022-12-10T05:58:49;17.57;;;8.40;;
7557;SDS011;3820;51.098;13.716;2022-12-10T06:01:21;12.47;;;5.90;;
7557;SDS011;3820;51.098;13.716;2022-12-10T06:03:49;11.97;;;6.33;;
7557;SDS011;3820;51.098;13.716;2022-12-10T06:06:21;12.40;;;5.83;;
7557;SDS011;3820;51.098;13.716;2022-12-10T06:08:52;19.63;;;7.00;;
7557;SDS011;3820;51.098;13.716;2022-12-10T06:11:19;17.07;;;6.67;;
7557;SDS011;3820;51.098;13.716;2022-12-10T06:13:45;10.90;;;5.07;;
7557;SDS011;3820;51.098;13.716;2022-12-10T06:16:18;14.40;;;7.17;;
7557;SDS011;3820;51.098;13.716;2022-12-10T06:18:45;17.60;;;5.93;;
7557;SDS011;3820;51.098;13.716;2022-12-10T06:21:13;11.73;;;4.80;;
7557;SDS011;3820;51.098;13.716;2022-12-10T06:23:40;19.57;;;5.87;;
7557;SDS011;3820;51.098;13.716;2022-12-10T06:26:08;19.13;;;6.63;;
7557;SDS011;3820;51.098;13.716;2022-12-10T06:28:37;16.83;;;7.00;;
7557;SDS011;3820;51.098;13.716;2022-12-10T06:31:03;16.33;;;7.53;;
7557;SDS011;3820;51.098;13.716;2022-12-10T06:33:30;14.03;;;6.30;;
7557;SDS011;3820;51.098;13.716;2022-12-10T06:35:57;12.27;;;5.77;;
7557;SDS011;3820;51.098;13.716;2022-12-10T06:38:23;15.83;;;7.50;;
7557;SDS011;3820;51.098;13.716;2022-12-10T06:40:50;15.90;;;7.67;;
7557;SDS011;3820;51.098;13.716;2022-12-10T06:43:17;11.63;;;4.63;;
7557;SDS011;3820;51.098;13.716;2022-12-10T06:45:44;15.13;;;6.20;;
7557;SDS011;3820;51.098;13.716;2022-12-10T06:48:10;18.70;;;7.37;;
7557;SDS011;3820;51.098;13.716;2022-12-10T06:50:37;17.13;;;5.83;;
7557;SDS011;3820;51.098;13.716;2022-12-10T06:53:03;12.90;;;5.53;;
7557;SDS011;3820;51.098;13.716;2022-12-10T06:55:30;13.53;;;7.07;;
7557;SDS011;3820;51.098;13.716;2022-12-10T06:57:56;16.83;;;6.70;;
7557;SDS011;3820;51.098;13.716;2022-12-10T07:00:23;14.80;;;6.90;;
7557;SDS011;3820;51.098;13.716;2022-12-10T07:02:50;19.47;;;7.13;;
7557;SDS011;3820;51.098;13.716;2022-12-10T07:05:16;25.00;;;7.77;;
7557;SDS011;3820;51.098;13.716;2022-12-10T07:07:43;15.50;;;6.27;;
7557;SDS011;3820;51.098;13.716;2022-12-10T07:10:10;24.47;;;8.87;;
7557;SDS011;3820;51.098;13.716;2022-12-10T07:12:37;6.73;;;5.40;;
7557;SDS011;3820;51.098;13.716;2022-12-10T07:15:04;15.77;;;6.17;;
7557;SDS011;3820;51.098;13.716;2022-12-10T07:17:30;25.97;;;7.10;;
7557;SDS011;3820;51.098;13.716;2022-12-10T07:19:57;24.23;;;8.57;;
7557;SDS011;3820;51.098;13.716;2022-12-10T07:22:24;15.83;;;6.80;;
7557;SDS011;3820;51.098;13.716;2022-12-10T07:24:50;22.90;;;6.07;;
7557;SDS011;3820;51.098;13.716;2022-12-10T07:27:17;18.77;;;6.17;;
7557;SDS011;3820;51.098;13.716;2022-12-10T07:29:44;23.93;;;7.97;;
7557;SDS011;3820;51.098;13.716;2022-12-10T07:32:10;20.50;;;6.43;;
7557;SDS011;3820;51.098;13.716;2022-12-10T07:34:37;15.03;;;5.70;;
7557;SDS011;3820;51.098;13.716;2022-12-10T07:37:03;12.87;;;6.23;;
7557;SDS011;3820;51.098;13.716;2022-12-10T07:39:30;15.40;;;6.03;;
7557;SDS011;3820;51.098;13.716;2022-12-10T07:41:56;15.10;;;7.23;;
7557;SDS011;3820;51.098;13.716;2022-12-10T07:44:24;14.23;;;5.30;;
7557;SDS011;3820;51.098;13.716;2022-12-10T07:46:52;15.87;;;5.97;;
7557;SDS011;3820;51.098;13.716;2022-12-10T07:49:19;16.60;;;5.87;;
7557;SDS011;3820;51.098;13.716;2022-12-10T07:51:47;16.30;;;7.13;;
7557;SDS011;3820;51.098;13.716;2022-12-10T07:54:14;13.57;;;6.57;;
7557;SDS011;3820;51.098;13.716;2022-12-10T07:56:41;17.83;;;6.67;;
7557;SDS011;3820;51.098;13.716;2022-12-10T07:59:08;19.43;;;8.07;;
7557;SDS011;3820;51.098;13.716;2022-12-10T08:01:34;21.83;;;6.17;;
7557;SDS011;3820;51.098;13.716;2022-12-10T08:04:01;17.03;;;7.30;;
7557;SDS011;3820;51.098;13.716;2022-12-10T08:06:28;19.27;;;7.20;;
7557;SDS011;3820;51.098;13.716;2022-12-10T08:08:55;13.60;;;7.10;;
7557;SDS011;3820;51.098;13.716;2022-12-10T08:11:22;17.37;;;7.80;;
7557;SDS011;3820;51.098;13.716;2022-12-10T08:13:49;16.10;;;6.30;;
7557;SDS011;3820;51.098;13.716;2022-12-10T08:16:22;17.67;;;7.07;;
7557;SDS011;3820;51.098;13.716;2022-12-10T08:18:52;12.67;;;6.23;;
7557;SDS011;3820;51.098;13.716;2022-12-10T08:21:21;15.10;;;6.23;;
7557;SDS011;3820;51.098;13.716;2022-12-10T08:23:49;17.30;;;7.67;;
7557;SDS011;3820;51.098;13.716;2022-12-10T08:26:16;16.93;;;6.60;;
7557;SDS011;3820;51.098;13.716;2022-12-10T08:28:45;13.90;;;6.73;;
7557;SDS011;3820;51.098;13.716;2022-12-10T08:31:13;13.17;;;5.70;;
7557;SDS011;3820;51.098;13.716;2022-12-10T08:33:40;11.90;;;6.53;;
7557;SDS011;3820;51.098;13.716;2022-12-10T08:36:08;15.53;;;7.37;;
7557;SDS011;3820;51.098;13.716;2022-12-10T08:38:35;17.30;;;6.93;;
7557;SDS011;3820;51.098;13.716;2022-12-10T08:41:05;12.77;;;5.57;;
7557;SDS011;3820;51.098;13.716;2022-12-10T08:43:33;16.40;;;6.50;;
7557;SDS011;3820;51.098;13.716;2022-12-10T08:46:00;14.77;;;7.17;;
7557;SDS011;3820;51.098;13.716;2022-12-10T08:48:29;24.83;;;7.73;;
7557;SDS011;3820;51.098;13.716;2022-12-10T08:50:56;21.47;;;7.97;;
7557;SDS011;3820;51.098;13.716;2022-12-10T08:53:23;10.97;;;5.77;;
7557;SDS011;3820;51.098;13.716;2022-12-10T08:55:50;18.57;;;6.47;;
7557;SDS011;3820;51.098;13.716;2022-12-10T08:58:17;47.53;;;18.10;;
7557;SDS011;3820;51.098;13.716;2022-12-10T09:00:44;118.70;;;43.80;;
7557;SDS011;3820;51.098;13.716;2022-12-10T09:03:11;69.10;;;29.63;;
7557;SDS011;3820;51.098;13.716;2022-12-10T09:05:37;18.40;;;9.90;;
7557;SDS011;3820;51.098;13.716;2022-12-10T09:08:04;22.17;;;10.27;;
7557;SDS011;3820;51.098;13.716;2022-12-10T09:10:31;30.80;;;10.23;;
7557;SDS011;3820;51.098;13.716;2022-12-10T09:12:57;21.37;;;6.83;;
7557;SDS011;3820;51.098;13.716;2022-12-10T09:15:28;19.07;;;6.50;;
7557;SDS011;3820;51.098;13.716;2022-12-10T09:17:55;10.20;;;4.70;;
7557;SDS011;3820;51.098;13.716;2022-12-10T09:20:23;26.20;;;7.50;;
7557;SDS011;3820;51.098;13.716;2022-12-10T09:22:49;18.57;;;8.13;;
7557;SDS011;3820;51.098;13.716;2022-12-10T09:25:16;12.83;;;6.70;;
7557;SDS011;3820;51.098;13.716;2022-12-10T09:27:43;17.17;;;6.20;;
7557;SDS011;3820;51.098;13.716;2022-12-10T09:30:10;14.50;;;8.17;;
7557;SDS011;3820;51.098;13.716;2022-12-10T09:32:37;18.00;;;6.63;;
7557;SDS011;3820;51.098;13.716;2022-12-10T09:35:04;18.77;;;8.03;;
7557;SDS011;3820;51.098;13.716;2022-12-10T09:37:32;16.47;;;7.40;;
7557;SDS011;3820;51.098;13.716;2022-12-10T09:39:58;15.93;;;7.20;;
7557;SDS011;3820;51.098;13.716;2022-12-10T09:42:38;14.03;;;7.70;;
7557;SDS011;3820;51.098;13.716;2022-12-10T09:47:54;22.07;;;8.60;;
7557;SDS011;3820;51.098;13.716;2022-12-10T09:50:29;22.43;;;9.87;;
7557;SDS011;3820;51.098;13.716;2022-12-10T09:52:58;17.97;;;7.73;;
7557;SDS011;3820;51.098;13.716;2022-12-10T09:55:28;16.20;;;7.27;;
7557;SDS011;3820;51.098;13.716;2022-12-10T09:57:59;15.27;;;5.93;;
7557;SDS011;3820;51.098;13.716;2022-12-10T10:00:29;17.33;;;7.73;;
7557;SDS011;3820;51.098;13.716;2022-12-10T10:02:59;17.00;;;7.80;;
7557;SDS011;3820;51.098;13.716;2022-12-10T10:05:28;18.73;;;7.30;;
7557;SDS011;3820;51.098;13.716;2022-12-10T10:07:58;18.97;;;7.00;;
7557;SDS011;3820;51.098;13.716;2022-12-10T10:10:30;12.27;;;7.17;;
7557;SDS011;3820;51.098;13.716;2022-12-10T10:15:47;19.33;;;6.57;;
7557;SDS011;3820;51.098;13.716;2022-12-10T10:21:11;16.30;;;6.87;;
7557;SDS011;3820;51.098;13.716;2022-12-10T10:23:48;13.90;;;6.07;;
7557;SDS011;3820;51.098;13.716;2022-12-10T10:26:14;10.73;;;6.23;;
7557;SDS011;3820;51.098;13.716;2022-12-10T10:28:41;16.83;;;7.10;;
7557;SDS011;3820;51.098;13.716;2022-12-10T10:31:18;17.40;;;7.30;;
7557;SDS011;3820;51.098;13.716;2022-12-10T10:33:50;12.17;;;6.00;;
7557;SDS011;3820;51.098;13.716;2022-12-10T10:36:23;15.13;;;6.43;;
7557;SDS011;3820;51.098;13.716;2022-12-10T10:38:51;10.23;;;4.77;;
7557;SDS011;3820;51.098;13.716;2022-12-10T10:41:18;17.90;;;6.87;;
7557;SDS011;3820;51.098;13.716;2022-12-10T10:43:44;16.83;;;7.10;;
7557;SDS011;3820;51.098;13.716;2022-12-10T10:46:13;12.00;;;6.93;;
7557;SDS011;3820;51.098;13.716;2022-12-10T10:48:41;13.70;;;6.37;;
7557;SDS011;3820;51.098;13.716;2022-12-10T10:51:12;16.70;;;8.30;;
7557;SDS011;3820;51.098;13.716;2022-12-10T10:53:49;10.97;;;7.20;;
7557;SDS011;3820;51.098;13.716;2022-12-10T10:56:19;31.73;;;10.10;;
7557;SDS011;3820;51.098;13.716;2022-12-10T10:58:58;10.83;;;5.87;;
7557;SDS011;3820;51.098;13.716;2022-12-10T11:01:47;16.30;;;6.47;;
7557;SDS011;3820;51.098;13.716;2022-12-10T11:04:20;10.57;;;4.93;;
7557;SDS011;3820;51.098;13.716;2022-12-10T11:06:54;10.33;;;5.83;;
7557;SDS011;3820;51.098;13.716;2022-12-10T11:09:30;12.57;;;6.10;;
7557;SDS011;3820;51.098;13.716;2022-12-10T11:12:00;11.60;;;5.90;;
7557;SDS011;3820;51.098;13.716;2022-12-10T11:14:40;15.27;;;6.00;;
7557;SDS011;3820;51.098;13.716;2022-12-10T11:19:45;13.73;;;6.53;;
7557;SDS011;3820;51.098;13.716;2022-12-10T11:22:28;19.87;;;8.43;;
7557;SDS011;3820;51.098;13.716;2022-12-10T11:24:56;16.77;;;6.37;;
7557;SDS011;3820;51.098;13.716;2022-12-10T11:27:46;11.87;;;6.27;;
7557;SDS011;3820;51.098;13.716;2022-12-10T11:30:15;13.27;;;6.10;;
7557;SDS011;3820;51.098;13.716;2022-12-10T11:33:00;15.23;;;4.73;;
7557;SDS011;3820;51.098;13.716;2022-12-10T11:38:24;15.83;;;6.67;;
7557;SDS011;3820;51.098;13.716;2022-12-10T11:57:30;10.80;;;5.20;;
7557;SDS011;3820;51.098;13.716;2022-12-10T12:00:14;10.50;;;5.33;;
7557;SDS011;3820;51.098;13.716;2022-12-10T12:05:31;11.07;;;6.17;;
7557;SDS011;3820;51.098;13.716;2022-12-10T12:08:13;19.40;;;6.07;;
7557;SDS011;3820;51.098;13.716;2022-12-10T12:13:39;12.93;;;5.73;;
7557;SDS011;3820;51.098;13.716;2022-12-10T12:16:11;14.60;;;6.40;;
7557;SDS011;3820;51.098;13.716;2022-12-10T12:21:10;15.67;;;8.77;;
7557;SDS011;3820;51.098;13.716;2022-12-10T12:23:49;13.00;;;6.40;;
7557;SDS011;3820;51.098;13.716;2022-12-10T12:26:29;14.87;;;6.40;;
7557;SDS011;3820;51.098;13.716;2022-12-10T12:29:12;11.07;;;5.03;;
7557;SDS011;3820;51.098;13.716;2022-12-10T12:34:47;13.47;;;6.00;;
7557;SDS011;3820;51.098;13.716;2022-12-10T12:37:28;16.30;;;7.13;;
7557;SDS011;3820;51.098;13.716;2022-12-10T12:48:04;11.83;;;6.43;;
7557;SDS011;3820;51.098;13.716;2022-12-10T12:53:15;11.57;;;5.43;;
7557;SDS011;3820;51.098;13.716;2022-12-10T12:56:02;12.43;;;5.90;;
7557;SDS011;3820;51.098;13.716;2022-12-10T12:58:34;15.33;;;7.00;;
7557;SDS011;3820;51.098;13.716;2022-12-10T13:03:57;10.70;;;6.07;;
7557;SDS011;3820;51.098;13.716;2022-12-10T13:06:25;10.23;;;4.87;;
7557;SDS011;3820;51.098;13.716;2022-12-10T13:11:42;13.70;;;4.80;;
7557;SDS011;3820;51.098;13.716;2022-12-10T13:14:31;17.90;;;5.70;;
7557;SDS011;3820;51.098;13.716;2022-12-10T13:17:01;9.70;;;4.73;;
7557;SDS011;3820;51.098;13.716;2022-12-10T13:19:49;10.97;;;5.03;;
7557;SDS011;3820;51.098;13.716;2022-12-10T13:27:38;12.00;;;6.30;;
7557;SDS011;3820;51.098;13.716;2022-12-10T13:42:37;9.87;;;5.17;;
7557;SDS011;3820;51.098;13.716;2022-12-10T13:45:26;12.57;;;4.97;;
7557;SDS011;3820;51.098;13.716;2022-12-10T13:48:15;8.90;;;5.40;;
7557;SDS011;3820;51.098;13.716;2022-12-10T13:50:45;12.57;;;4.20;;
7557;SDS011;3820;51.098;13.716;2022-12-10T14:06:59;13.23;;;4.23;;
7557;SDS011;3820;51.098;13.716;2022-12-10T14:09:30;14.80;;;5.97;;
7557;SDS011;3820;51.098;13.716;2022-12-10T14:12:05;9.20;;;4.83;;
7557;SDS011;3820;51.098;13.716;2022-12-10T14:14:46;11.23;;;5.37;;
7557;SDS011;3820;51.098;13.716;2022-12-10T14:17:18;14.63;;;5.03;;
7557;SDS011;3820;51.098;13.716;2022-12-10T14:19:48;10.30;;;5.63;;
7557;SDS011;3820;51.098;13.716;2022-12-10T14:22:18;10.00;;;4.60;;
7557;SDS011;3820;51.098;13.716;2022-12-10T14:25:10;10.47;;;4.83;;
7557;SDS011;3820;51.098;13.716;2022-12-10T14:27:42;9.43;;;5.10;;
7557;SDS011;3820;51.098;13.716;2022-12-10T14:30:17;15.10;;;6.30;;
7557;SDS011;3820;51.098;13.716;2022-12-10T14:32:49;10.20;;;6.13;;
7557;SDS011;3820;51.098;13.716;2022-12-10T14:35:19;20.97;;;6.97;;
7557;SDS011;3820;51.098;13.716;2022-12-10T14:37:51;13.10;;;4.93;;
7557;SDS011;3820;51.098;13.716;2022-12-10T14:40:23;8.93;;;5.47;;
7557;SDS011;3820;51.098;13.716;2022-12-10T14:42:50;12.67;;;5.53;;
7557;SDS011;3820;51.098;13.716;2022-12-10T14:45:49;13.03;;;6.10;;
7557;SDS011;3820;51.098;13.716;2022-12-10T14:48:18;13.97;;;5.57;;
7557;SDS011;3820;51.098;13.716;2022-12-10T14:50:45;12.33;;;6.20;;
7557;SDS011;3820;51.098;13.716;2022-12-10T14:53:16;15.37;;;6.30;;
7557;SDS011;3820;51.098;13.716;2022-12-10T14:55:55;13.63;;;6.03;;
7557;SDS011;3820;51.098;13.716;2022-12-10T14:59:03;17.17;;;7.13;;
7557;SDS011;3820;51.098;13.716;2022-12-10T15:01:39;10.13;;;6.40;;
7557;SDS011;3820;51.098;13.716;2022-12-10T15:04:15;11.13;;;5.30;;
7557;SDS011;3820;51.098;13.716;2022-12-10T15:06:51;12.37;;;5.40;;
7557;SDS011;3820;51.098;13.716;2022-12-10T15:09:19;10.03;;;6.03;;
7557;SDS011;3820;51.098;13.716;2022-12-10T15:11:58;14.90;;;7.33;;
7557;SDS011;3820;51.098;13.716;2022-12-10T15:14:26;22.30;;;9.33;;
7557;SDS011;3820;51.098;13.716;2022-12-10T15:16:54;12.43;;;6.60;;
7557;SDS011;3820;51.098;13.716;2022-12-10T15:21:59;13.47;;;6.70;;
7557;SDS011;3820;51.098;13.716;2022-12-10T15:24:40;11.67;;;6.23;;
7557;SDS011;3820;51.098;13.716;2022-12-10T15:27:21;13.03;;;7.57;;
7557;SDS011;3820;51.098;13.716;2022-12-10T15:29:49;12.30;;;6.73;;
7557;SDS011;3820;51.098;13.716;2022-12-10T15:34:49;19.07;;;7.27;;
7557;SDS011;3820;51.098;13.716;2022-12-10T15:37:40;12.90;;;6.97;;
7557;SDS011;3820;51.098;13.716;2022-12-10T15:40:07;18.07;;;7.43;;
7557;SDS011;3820;51.098;13.716;2022-12-10T15:42:48;17.00;;;5.60;;
7557;SDS011;3820;51.098;13.716;2022-12-10T15:45:16;20.60;;;8.53;;
7557;SDS011;3820;51.098;13.716;2022-12-10T15:47:46;10.60;;;5.67;;
7557;SDS011;3820;51.098;13.716;2022-12-10T15:50:12;10.03;;;6.00;;
7557;SDS011;3820;51.098;13.716;2022-12-10T15:52:39;18.60;;;8.13;;
7557;SDS011;3820;51.098;13.716;2022-12-10T15:55:06;16.27;;;6.87;;
7557;SDS011;3820;51.098;13.716;2022-12-10T15:57:34;15.07;;;7.27;;
7557;SDS011;3820;51.098;13.716;2022-12-10T16:00:06;14.67;;;7.70;;
7557;SDS011;3820;51.098;13.716;2022-12-10T16:05:19;22.30;;;7.27;;
7557;SDS011;3820;51.098;13.716;2022-12-10T16:07:48;17.63;;;7.43;;
7557;SDS011;3820;51.098;13.716;2022-12-10T16:10:18;13.63;;;7.50;;
7557;SDS011;3820;51.098;13.716;2022-12-10T16:12:47;20.90;;;6.53;;
7557;SDS011;3820;51.098;13.716;2022-12-10T16:15:17;16.97;;;6.10;;
7557;SDS011;3820;51.098;13.716;2022-12-10T16:17:46;21.27;;;7.97;;
7557;SDS011;3820;51.098;13.716;2022-12-10T16:20:26;22.53;;;8.07;;
7557;SDS011;3820;51.098;13.716;2022-12-10T16:22:56;10.47;;;5.03;;
7557;SDS011;3820;51.098;13.716;2022-12-10T16:25:25;19.97;;;8.13;;
7557;SDS011;3820;51.098;13.716;2022-12-10T16:27:54;11.73;;;6.57;;
7557;SDS011;3820;51.098;13.716;2022-12-10T16:30:21;14.00;;;6.47;;
7557;SDS011;3820;51.098;13.716;2022-12-10T16:32:50;13.43;;;7.23;;
7557;SDS011;3820;51.098;13.716;2022-12-10T16:35:17;18.93;;;8.50;;
7557;SDS011;3820;51.098;13.716;2022-12-10T16:37:44;15.53;;;6.87;;
7557;SDS011;3820;51.098;13.716;2022-12-10T16:40:12;11.60;;;5.70;;
7557;SDS011;3820;51.098;13.716;2022-12-10T16:42:40;14.70;;;6.43;;
7557;SDS011;3820;51.098;13.716;2022-12-10T16:45:14;14.93;;;7.30;;
7557;SDS011;3820;51.098;13.716;2022-12-10T16:47:42;15.73;;;6.70;;
7557;SDS011;3820;51.098;13.716;2022-12-10T16:50:09;15.17;;;7.37;;
7557;SDS011;3820;51.098;13.716;2022-12-10T16:52:39;9.00;;;6.30;;
7557;SDS011;3820;51.098;13.716;2022-12-10T16:55:07;13.90;;;6.77;;
7557;SDS011;3820;51.098;13.716;2022-12-10T16:57:37;20.57;;;7.30;;
7557;SDS011;3820;51.098;13.716;2022-12-10T17:00:07;14.93;;;6.90;;
7557;SDS011;3820;51.098;13.716;2022-12-10T17:02:34;18.63;;;8.33;;